createdAt,value
2018-12-06T00:00:17.272Z,80.47
2018-12-06T00:02:45.681Z,80.51
2018-12-06T00:05:17.072Z,80.38
2018-12-06T00:07:56.705Z,80.07
2018-12-06T00:10:25.089Z,80.18
2018-12-06T00:12:53.540Z,80.13
2018-12-06T00:15:26.633Z,80.76
2018-12-06T00:17:55.016Z,80.47
2018-12-06T00:20:23.393Z,80.75
2018-12-06T00:22:51.805Z,80.56
2018-12-06T00:25:20.380Z,81.22
2018-12-06T00:27:49.154Z,80.97
2018-12-06T00:30:36.769Z,80.92
2018-12-06T00:33:05.917Z,81.38
2018-12-06T00:35:34.438Z,80.92
2018-12-06T00:38:02.843Z,81.15
2018-12-06T00:40:31.706Z,81.15
2018-12-06T00:43:00.108Z,81.25
2018-12-06T00:45:28.496Z,81.33
2018-12-06T00:47:56.958Z,81.08
2018-12-06T00:50:25.329Z,81.40
2018-12-06T00:52:54.029Z,81.75
2018-12-06T00:55:22.425Z,81.12
2018-12-06T00:57:50.821Z,81.44
2018-12-06T01:00:19.242Z,81.53
2018-12-06T01:02:47.629Z,81.64
2018-12-06T01:05:16.032Z,81.20
2018-12-06T01:07:44.477Z,81.53
2018-12-06T01:10:13.409Z,81.47
2018-12-06T01:12:41.841Z,81.66
2018-12-06T01:15:10.325Z,81.32
2018-12-06T01:17:38.722Z,81.39
2018-12-06T01:20:08.223Z,81.83
2018-12-06T01:22:36.769Z,81.62
2018-12-06T01:25:06.497Z,81.46
2018-12-06T01:27:34.888Z,81.59
2018-12-06T01:30:03.822Z,81.67
2018-12-06T01:32:32.225Z,81.84
2018-12-06T01:35:00.620Z,82.07
2018-12-06T01:37:29.063Z,81.86
2018-12-06T01:39:57.461Z,82.19
2018-12-06T01:42:25.973Z,82.04
2018-12-06T01:44:54.399Z,82.18
2018-12-06T01:47:22.800Z,81.80
2018-12-06T01:49:51.186Z,81.82
2018-12-06T01:52:19.706Z,82.12
2018-12-06T01:54:48.331Z,81.88
2018-12-06T01:57:16.865Z,82.40
2018-12-06T01:59:45.392Z,82.03
2018-12-06T02:02:13.865Z,82.29
2018-12-06T02:04:42.249Z,82.49
2018-12-06T02:07:10.694Z,82.10
2018-12-06T02:09:39.100Z,82.09
2018-12-06T02:12:07.559Z,82.48
2018-12-06T02:14:35.989Z,82.44
2018-12-06T02:17:04.393Z,82.34
2018-12-06T02:19:33.089Z,82.07
2018-12-06T02:22:01.720Z,82.38
2018-12-06T02:24:31.014Z,82.05
2018-12-06T02:26:59.389Z,82.41
2018-12-06T02:29:31.974Z,82.35
2018-12-06T02:32:00.364Z,81.81
2018-12-06T02:34:28.732Z,81.80
2018-12-06T02:36:57.146Z,82.17
2018-12-06T02:39:25.542Z,82.21
2018-12-06T02:41:53.910Z,82.49
2018-12-06T02:44:22.341Z,82.30
2018-12-06T02:46:50.733Z,82.01
2018-12-06T02:49:19.113Z,82.08
2018-12-06T02:51:47.528Z,82.32
2018-12-06T02:54:16.000Z,81.99
2018-12-06T02:56:45.097Z,82.00
2018-12-06T02:59:14.120Z,82.06
2018-12-06T03:01:42.641Z,82.01
2018-12-06T03:04:13.004Z,81.96
2018-12-06T03:06:41.425Z,82.12
2018-12-06T03:09:09.839Z,82.19
2018-12-06T03:11:38.349Z,82.06
2018-12-06T03:14:07.282Z,82.41
2018-12-06T03:16:35.678Z,82.14
2018-12-06T03:19:04.259Z,82.04
2018-12-06T03:21:32.669Z,82.10
2018-12-06T03:24:01.037Z,82.36
2018-12-06T03:26:29.433Z,82.55
2018-12-06T03:28:57.828Z,82.44
2018-12-06T03:31:26.300Z,82.15
2018-12-06T03:33:54.841Z,82.27
2018-12-06T03:36:23.346Z,82.20
2018-12-06T03:38:51.752Z,82.48
2018-12-06T03:41:20.145Z,82.29
2018-12-06T03:43:48.609Z,82.44
2018-12-06T03:46:17.381Z,82.66
2018-12-06T03:48:45.772Z,82.82
2018-12-06T03:51:14.476Z,82.76
2018-12-06T03:53:43.108Z,83.02
2018-12-06T03:56:11.503Z,82.77
2018-12-06T03:58:40.690Z,82.53
2018-12-06T04:01:09.083Z,82.72
2018-12-06T04:03:37.633Z,83.03
2018-12-06T04:06:06.058Z,82.96
2018-12-06T04:08:34.424Z,82.81
2018-12-06T04:11:02.940Z,82.89
2018-12-06T04:13:31.395Z,83.21
2018-12-06T04:15:59.796Z,82.96
2018-12-06T04:18:28.186Z,83.28
2018-12-06T04:20:56.691Z,83.21
2018-12-06T04:23:26.001Z,83.42
2018-12-06T04:25:54.376Z,83.55
2018-12-06T04:28:22.886Z,83.37
2018-12-06T04:30:51.250Z,83.71
2018-12-06T04:33:19.633Z,83.95
2018-12-06T04:35:48.229Z,83.61
2018-12-06T04:38:16.605Z,83.78
2018-12-06T04:40:45.186Z,84.20
2018-12-06T04:43:13.638Z,84.08
2018-12-06T04:45:42.114Z,84.25
2018-12-06T04:48:10.571Z,83.79
2018-12-06T04:50:39.016Z,84.01
2018-12-06T04:53:07.401Z,84.33
2018-12-06T04:55:35.814Z,84.27
2018-12-06T04:58:04.270Z,84.04
2018-12-06T05:00:33.404Z,84.31
2018-12-06T05:03:01.788Z,84.36
2018-12-06T05:05:30.220Z,83.91
2018-12-06T05:07:58.812Z,84.07
2018-12-06T05:10:27.237Z,83.80
2018-12-06T05:12:55.683Z,84.26
2018-12-06T05:15:24.063Z,83.90
2018-12-06T05:17:52.442Z,84.01
2018-12-06T05:20:20.868Z,84.31
2018-12-06T05:22:49.361Z,83.99
2018-12-06T05:25:18.073Z,84.06
2018-12-06T05:27:46.513Z,84.30
2018-12-06T05:30:15.110Z,84.28
2018-12-06T05:32:43.493Z,84.19
2018-12-06T05:35:12.080Z,84.29
2018-12-06T05:37:40.474Z,84.28
2018-12-06T05:40:08.995Z,84.44
2018-12-06T05:42:37.534Z,84.54
2018-12-06T05:45:06.181Z,84.23
2018-12-06T05:47:34.637Z,84.66
2018-12-06T05:50:03.062Z,84.47
2018-12-06T05:52:31.449Z,84.75
2018-12-06T05:54:59.863Z,84.41
2018-12-06T05:57:28.297Z,84.64
2018-12-06T05:59:56.712Z,84.97
2018-12-06T06:02:25.467Z,85.02
2018-12-06T06:04:54.061Z,85.11
2018-12-06T06:07:22.466Z,85.03
2018-12-06T06:09:50.845Z,84.79
2018-12-06T06:12:19.273Z,85.15
2018-12-06T06:14:47.653Z,85.17
2018-12-06T06:17:16.039Z,84.86
2018-12-06T06:19:44.508Z,84.70
2018-12-06T06:22:12.924Z,84.60
2018-12-06T06:24:41.333Z,85.04
2018-12-06T06:27:09.737Z,85.12
2018-12-06T06:29:38.323Z,84.77
2018-12-06T06:32:06.377Z,84.78
2018-12-06T06:34:34.810Z,85.18
2018-12-06T06:37:03.208Z,84.98
2018-12-06T06:39:31.646Z,84.78
2018-12-06T06:42:00.180Z,85.24
2018-12-06T06:44:28.608Z,84.88
2018-12-06T06:46:57.010Z,84.94
2018-12-06T06:49:25.438Z,85.26
2018-12-06T06:51:54.140Z,84.96
2018-12-06T06:54:22.702Z,84.96
2018-12-06T06:56:51.149Z,85.34
2018-12-06T06:59:25.863Z,85.02
2018-12-06T07:01:49.953Z,85.45
2018-12-06T07:04:18.894Z,85.13
2018-12-06T07:06:47.338Z,85.35
2018-12-06T07:09:15.719Z,85.70
2018-12-06T07:11:44.237Z,85.44
2018-12-06T07:14:12.709Z,85.69
2018-12-06T07:16:42.453Z,85.63
2018-12-06T07:19:10.989Z,85.48
2018-12-06T07:21:39.367Z,85.40
2018-12-06T07:24:08.072Z,85.47
2018-12-06T07:26:36.645Z,85.48
2018-12-06T07:29:05.073Z,85.82
2018-12-06T07:31:33.505Z,85.80
2018-12-06T07:34:02.034Z,85.32
2018-12-06T07:36:30.510Z,85.76
2018-12-06T07:38:58.958Z,85.86
2018-12-06T07:41:27.489Z,85.42
2018-12-06T07:43:55.868Z,85.42
2018-12-06T07:46:24.465Z,85.30
2018-12-06T07:48:53.514Z,85.64
2018-12-06T07:51:21.929Z,85.32
2018-12-06T07:53:50.321Z,85.21
2018-12-06T07:56:18.745Z,85.25
2018-12-06T07:58:47.141Z,85.07
2018-12-06T08:01:15.643Z,85.55
2018-12-06T08:03:44.113Z,85.29
2018-12-06T08:06:13.263Z,85.55
2018-12-06T08:08:41.652Z,85.13
2018-12-06T08:11:10.075Z,85.47
2018-12-06T08:13:38.473Z,85.38
2018-12-06T08:16:06.867Z,85.24
2018-12-06T08:18:35.375Z,85.49
2018-12-06T08:21:03.796Z,85.41
2018-12-06T08:23:32.227Z,85.62
2018-12-06T08:26:00.690Z,85.27
2018-12-06T08:28:29.164Z,85.58
2018-12-06T08:30:57.533Z,85.29
2018-12-06T08:33:26.033Z,85.68
2018-12-06T08:35:54.454Z,85.70
2018-12-06T08:38:22.856Z,85.86
2018-12-06T08:40:51.282Z,85.32
2018-12-06T08:43:19.717Z,85.27
2018-12-06T08:45:48.219Z,85.88
2018-12-06T08:48:17.105Z,85.68
2018-12-06T08:50:45.507Z,85.32
2018-12-06T08:53:13.930Z,85.38
2018-12-06T08:55:42.557Z,85.37
2018-12-06T08:58:10.936Z,85.73
2018-12-06T09:00:39.312Z,85.83
2018-12-06T09:03:07.757Z,85.73
2018-12-06T09:05:36.144Z,85.55
2018-12-06T09:08:05.179Z,85.40
2018-12-06T09:10:33.694Z,85.85
2018-12-06T09:13:02.076Z,85.72
2018-12-06T09:15:30.501Z,85.70
2018-12-06T09:17:58.905Z,85.25
2018-12-06T09:20:27.967Z,85.34
2018-12-06T09:22:56.359Z,85.40
2018-12-06T09:25:24.908Z,85.13
2018-12-06T09:27:53.330Z,85.10
2018-12-06T09:30:21.749Z,85.39
2018-12-06T09:32:50.170Z,85.08
2018-12-06T09:35:18.570Z,85.36
2018-12-06T09:37:46.961Z,85.01
2018-12-06T09:40:15.365Z,85.27
2018-12-06T09:42:43.967Z,85.85
2018-12-06T09:45:12.481Z,85.59
2018-12-06T09:47:40.913Z,85.92
2018-12-06T09:50:09.459Z,85.51
2018-12-06T09:52:37.893Z,85.01
2018-12-06T09:55:06.561Z,85.43
2018-12-06T09:57:34.960Z,85.38
2018-12-06T10:00:04.293Z,85.27
2018-12-06T10:02:32.712Z,85.30
2018-12-06T10:05:01.096Z,85.09
2018-12-06T10:07:29.835Z,85.32
2018-12-06T10:09:58.487Z,85.22
2018-12-06T10:12:26.909Z,85.08
2018-12-06T10:14:55.289Z,85.61
2018-12-06T10:17:23.745Z,85.25
2018-12-06T10:19:52.247Z,85.14
2018-12-06T10:22:20.639Z,85.18
2018-12-06T10:24:49.046Z,85.44
2018-12-06T10:27:17.449Z,85.35
2018-12-06T10:29:45.817Z,85.49
2018-12-06T10:32:14.288Z,84.98
2018-12-06T10:34:42.688Z,85.21
2018-12-06T10:37:11.060Z,85.32
2018-12-06T10:39:39.518Z,85.56
2018-12-06T10:42:07.922Z,85.67
2018-12-06T10:44:36.317Z,85.16
2018-12-06T10:47:04.738Z,85.38
2018-12-06T10:49:33.141Z,85.60
2018-12-06T10:52:01.800Z,85.37
2018-12-06T10:54:30.502Z,85.52
2018-12-06T10:56:58.902Z,85.78
2018-12-06T10:59:27.277Z,85.73
2018-12-06T11:02:00.977Z,85.75
2018-12-06T11:04:35.838Z,85.91
2018-12-06T11:07:06.030Z,85.45
2018-12-06T11:09:34.754Z,86.00
2018-12-06T11:12:04.143Z,85.85
2018-12-06T11:14:32.598Z,85.40
2018-12-06T11:17:01.017Z,85.18
2018-12-06T11:19:29.702Z,85.31
2018-12-06T11:21:58.142Z,85.29
2018-12-06T11:24:26.539Z,85.04
2018-12-06T11:26:55.033Z,85.10
2018-12-06T11:29:23.501Z,85.28
2018-12-06T11:31:51.981Z,85.13
2018-12-06T11:34:20.348Z,85.14
2018-12-06T11:36:48.769Z,84.75
2018-12-06T11:39:17.197Z,84.71
2018-12-06T11:42:21.002Z,84.97
2018-12-06T11:44:49.401Z,84.56
2018-12-06T11:47:17.810Z,84.55
2018-12-06T11:49:46.234Z,84.70
2018-12-06T11:52:14.637Z,84.77
2018-12-06T11:54:43.122Z,84.58
2018-12-06T11:57:11.569Z,84.27
2018-12-06T11:59:40.511Z,84.04
2018-12-06T12:02:10.177Z,84.53
2018-12-06T12:04:39.381Z,84.59
2018-12-06T12:07:07.761Z,84.44
2018-12-06T12:09:36.181Z,84.30
2018-12-06T12:12:05.130Z,84.32
2018-12-06T12:14:33.540Z,84.36
2018-12-06T12:17:01.989Z,84.11
2018-12-06T12:19:30.636Z,84.02
2018-12-06T12:21:59.030Z,84.05
2018-12-06T12:24:27.435Z,83.71
2018-12-06T12:26:56.157Z,83.72
2018-12-06T12:29:24.549Z,83.75
2018-12-06T12:31:52.970Z,83.99
2018-12-06T12:34:21.842Z,83.76
2018-12-06T12:36:50.229Z,83.58
2018-12-06T12:39:18.620Z,83.62
2018-12-06T12:41:47.247Z,83.47
2018-12-06T12:44:15.652Z,83.26
2018-12-06T12:46:44.178Z,83.30
2018-12-06T12:49:12.607Z,83.46
2018-12-06T12:51:40.988Z,83.29
2018-12-06T12:54:09.377Z,83.33
2018-12-06T12:56:37.783Z,83.46
2018-12-06T12:59:06.203Z,83.54
2018-12-06T13:01:34.674Z,82.91
2018-12-06T13:04:03.193Z,83.45
2018-12-06T13:06:31.761Z,83.21
2018-12-06T13:09:00.232Z,83.29
2018-12-06T13:11:28.668Z,83.68
2018-12-06T13:13:57.582Z,83.66
2018-12-06T13:16:25.962Z,83.47
2018-12-06T13:18:54.885Z,83.65
2018-12-06T13:21:23.356Z,83.72
2018-12-06T13:23:51.751Z,83.65
2018-12-06T13:26:20.194Z,84.13
2018-12-06T13:28:49.721Z,84.00
2018-12-06T13:31:18.406Z,84.02
2018-12-06T13:33:46.930Z,84.03
2018-12-06T13:36:15.698Z,84.39
2018-12-06T13:38:44.909Z,83.96
2018-12-06T13:41:13.352Z,84.05
2018-12-06T13:43:41.755Z,84.50
2018-12-06T13:46:10.180Z,84.54
2018-12-06T13:48:38.815Z,84.30
2018-12-06T13:51:07.193Z,84.43
2018-12-06T13:53:35.746Z,84.62
2018-12-06T13:56:04.466Z,84.65
2018-12-06T13:58:32.876Z,84.79
2018-12-06T14:01:01.582Z,84.64
2018-12-06T14:03:30.544Z,84.86
2018-12-06T14:05:58.937Z,84.98
2018-12-06T14:08:33.830Z,85.17
2018-12-06T14:11:02.338Z,85.16
2018-12-06T14:13:30.725Z,85.22
2018-12-06T14:15:59.709Z,85.55
2018-12-06T14:18:28.135Z,85.47
2018-12-06T14:20:56.753Z,85.67
2018-12-06T14:23:25.173Z,85.36
2018-12-06T14:25:53.557Z,85.35
2018-12-06T14:28:22.567Z,85.21
2018-12-06T14:30:51.545Z,85.33
2018-12-06T14:33:20.068Z,85.73
2018-12-06T14:35:48.474Z,85.61
2018-12-06T14:38:16.925Z,85.77
2018-12-06T14:40:45.305Z,85.77
2018-12-06T14:43:15.164Z,85.70
2018-12-06T14:45:44.238Z,85.79
2018-12-06T14:48:12.985Z,85.54
2018-12-06T14:50:41.361Z,85.23
2018-12-06T14:53:09.797Z,85.29
2018-12-06T14:55:38.194Z,85.73
2018-12-06T14:58:06.613Z,85.67
2018-12-06T15:00:35.225Z,85.52
2018-12-06T15:03:03.897Z,85.44
2018-12-06T15:05:32.310Z,85.59
2018-12-06T15:08:00.829Z,85.32
2018-12-06T15:10:29.254Z,85.44
2018-12-06T15:12:57.703Z,85.74
2018-12-06T15:15:26.149Z,85.64
2018-12-06T15:17:54.796Z,86.05
2018-12-06T15:20:23.211Z,86.02
2018-12-06T15:22:51.654Z,85.63
2018-12-06T15:25:21.090Z,86.01
2018-12-06T15:27:50.209Z,86.34
2018-12-06T15:30:19.217Z,86.34
2018-12-06T15:32:47.656Z,86.07
2018-12-06T15:35:16.041Z,86.37
2018-12-06T15:37:44.485Z,86.26
2018-12-06T15:40:12.915Z,86.18
2018-12-06T15:42:41.342Z,86.20
2018-12-06T15:45:09.893Z,86.14
2018-12-06T15:47:41.283Z,86.18
2018-12-06T15:50:10.700Z,86.21
2018-12-06T15:52:39.108Z,86.72
2018-12-06T15:55:08.015Z,86.58
2018-12-06T15:57:36.473Z,86.69
2018-12-06T16:00:07.503Z,86.67
2018-12-06T16:02:35.993Z,86.63
2018-12-06T16:05:05.748Z,86.32
2018-12-06T16:07:34.135Z,86.86
2018-12-06T16:10:02.516Z,86.62
2018-12-06T16:12:30.926Z,86.55
2018-12-06T16:14:59.349Z,86.88
2018-12-06T16:17:27.722Z,86.72
2018-12-06T16:19:56.685Z,86.72
2018-12-06T16:22:25.090Z,86.64
2018-12-06T16:24:53.478Z,86.93
2018-12-06T16:27:21.931Z,86.63
2018-12-06T16:29:51.544Z,86.72
2018-12-06T16:32:20.537Z,86.97
2018-12-06T16:34:48.966Z,86.76
2018-12-06T16:37:17.401Z,86.92
2018-12-06T16:39:45.810Z,87.01
2018-12-06T16:42:14.387Z,87.39
2018-12-06T16:44:42.792Z,87.30
2018-12-06T16:47:11.164Z,87.67
2018-12-06T16:49:39.906Z,87.42
2018-12-06T16:52:08.627Z,87.72
2018-12-06T16:54:37.037Z,87.12
2018-12-06T16:57:05.487Z,87.49
2018-12-06T16:59:33.870Z,87.43
2018-12-06T17:02:02.269Z,87.18
2018-12-06T17:04:30.699Z,87.34
2018-12-06T17:06:59.131Z,86.90
2018-12-06T17:09:27.537Z,87.18
2018-12-06T17:11:55.973Z,87.16
2018-12-06T17:14:24.385Z,86.76
2018-12-06T17:16:52.773Z,86.96
2018-12-06T17:19:21.222Z,87.28
2018-12-06T17:21:50.439Z,86.99
2018-12-06T17:24:19.152Z,86.91
2018-12-06T17:26:47.592Z,86.83
2018-12-06T17:29:16.001Z,87.25
2018-12-06T17:31:44.393Z,87.23
2018-12-06T17:34:12.946Z,87.54
2018-12-06T17:36:41.436Z,87.31
2018-12-06T17:39:09.838Z,87.64
2018-12-06T17:41:38.325Z,87.68
2018-12-06T17:44:06.786Z,87.21
2018-12-06T17:46:35.161Z,87.51
2018-12-06T17:49:03.719Z,87.57
2018-12-06T17:51:32.146Z,87.51
2018-12-06T17:54:00.655Z,87.62
2018-12-06T17:56:29.126Z,87.91
2018-12-06T17:58:58.613Z,87.81
2018-12-06T18:01:28.363Z,87.80
2018-12-06T18:03:57.033Z,87.91
2018-12-06T18:06:25.428Z,87.83
2018-12-06T18:08:53.853Z,87.49
2018-12-06T18:11:22.317Z,87.83
2018-12-06T18:13:50.847Z,87.99
2018-12-06T18:16:19.800Z,87.69
2018-12-06T18:18:48.494Z,87.75
2018-12-06T18:21:16.954Z,87.78
2018-12-06T18:23:45.797Z,87.87
2018-12-06T18:26:20.870Z,87.67
2018-12-06T18:28:49.263Z,88.03
2018-12-06T18:31:17.714Z,87.59
2018-12-06T18:33:46.269Z,87.86
2018-12-06T18:36:14.689Z,87.52
2018-12-06T18:38:43.085Z,87.53
2018-12-06T18:41:11.545Z,87.56
2018-12-06T18:43:39.950Z,87.90
2018-12-06T18:46:08.377Z,87.71
2018-12-06T18:48:36.850Z,87.55
2018-12-06T18:51:05.253Z,87.96
2018-12-06T18:53:33.896Z,87.84
2018-12-06T18:56:02.746Z,87.85
2018-12-06T18:58:34.309Z,88.29
2018-12-06T19:01:01.664Z,88.03
2018-12-06T19:03:30.586Z,88.57
2018-12-06T19:05:59.140Z,88.07
2018-12-06T19:08:27.570Z,88.53
2018-12-06T19:10:56.108Z,88.51
2018-12-06T19:13:24.518Z,88.58
2018-12-06T19:15:52.908Z,88.71
2018-12-06T19:18:21.357Z,88.70
2018-12-06T19:20:51.102Z,88.64
2018-12-06T19:23:20.855Z,88.21
2018-12-06T19:25:53.075Z,88.32
2018-12-06T19:28:21.581Z,88.25
2018-12-06T19:30:50.041Z,88.80
2018-12-06T19:33:18.445Z,88.49
2018-12-06T19:35:46.869Z,88.72
2018-12-06T19:38:15.478Z,88.31
2018-12-06T19:40:43.883Z,88.66
2018-12-06T19:43:12.608Z,88.20
2018-12-06T19:45:41.028Z,88.56
2018-12-06T19:48:09.419Z,88.53
2018-12-06T19:50:38.017Z,88.61
2018-12-06T19:53:06.426Z,88.68
2018-12-06T19:55:34.871Z,89.08
2018-12-06T19:58:03.287Z,89.35
2018-12-06T20:00:31.892Z,89.13
2018-12-06T20:03:00.337Z,88.68
2018-12-06T20:05:28.849Z,88.72
2018-12-06T20:07:57.386Z,88.49
2018-12-06T20:10:25.900Z,88.66
2018-12-06T20:12:54.406Z,88.36
2018-12-06T20:15:22.796Z,88.71
2018-12-06T20:17:51.226Z,88.90
2018-12-06T20:20:23.598Z,88.84
2018-12-06T20:22:50.280Z,88.53
2018-12-06T20:25:18.826Z,88.90
2018-12-06T20:27:47.700Z,88.73
2018-12-06T20:30:16.096Z,89.02
2018-12-06T20:32:44.862Z,88.87
2018-12-06T20:35:13.272Z,88.88
2018-12-06T20:37:41.662Z,89.17
2018-12-06T20:40:10.134Z,89.19
2018-12-06T20:42:38.829Z,89.14
2018-12-06T20:45:07.391Z,89.22
2018-12-06T20:47:35.873Z,89.35
2018-12-06T20:50:04.588Z,89.15
2018-12-06T20:52:32.974Z,89.13
2018-12-06T20:55:01.417Z,89.11
2018-12-06T20:57:36.902Z,89.22
2018-12-06T21:00:01.384Z,89.21
2018-12-06T21:02:30.345Z,88.99
2018-12-06T21:04:58.765Z,89.07
2018-12-06T21:07:27.405Z,89.17
2018-12-06T21:09:55.865Z,88.88
2018-12-06T21:12:24.405Z,89.23
2018-12-06T21:14:52.833Z,88.98
2018-12-06T21:17:21.418Z,88.77
2018-12-06T21:19:49.827Z,88.96
2018-12-06T21:22:18.230Z,88.85
2018-12-06T21:24:46.641Z,88.80
2018-12-06T21:27:15.039Z,88.46
2018-12-06T21:29:43.906Z,88.87
2018-12-06T21:32:12.325Z,88.50
2018-12-06T21:34:40.720Z,88.54
2018-12-06T21:37:09.357Z,88.45
2018-12-06T21:39:37.875Z,88.27
2018-12-06T21:42:06.264Z,88.01
2018-12-06T21:44:34.665Z,88.14
2018-12-06T21:47:03.921Z,87.98
2018-12-06T21:49:32.337Z,87.84
2018-12-06T21:52:00.728Z,88.13
2018-12-06T21:54:29.177Z,87.92
2018-12-06T21:56:57.713Z,87.42
2018-12-06T21:59:26.129Z,87.68
2018-12-06T22:02:04.710Z,87.61
2018-12-06T22:04:33.125Z,87.77
2018-12-06T22:07:01.549Z,87.69
2018-12-06T22:09:29.993Z,87.68
2018-12-06T22:11:58.434Z,87.50
2018-12-06T22:14:26.856Z,87.72
2018-12-06T22:16:55.277Z,87.41
2018-12-06T22:19:23.858Z,87.63
2018-12-06T22:21:52.241Z,87.73
2018-12-06T22:24:20.672Z,87.53
2018-12-06T22:26:49.077Z,87.67
2018-12-06T22:29:17.489Z,87.82
2018-12-06T22:31:46.205Z,87.47
2018-12-06T22:34:14.775Z,87.52
2018-12-06T22:36:43.181Z,87.32
2018-12-06T22:39:11.682Z,87.16
2018-12-06T22:41:40.069Z,87.46
2018-12-06T22:44:08.478Z,87.69
2018-12-06T22:46:36.949Z,87.67
2018-12-06T22:49:05.477Z,87.79
2018-12-06T22:51:33.941Z,87.46
2018-12-06T22:54:02.546Z,87.51
2018-12-06T22:56:31.033Z,87.63
2018-12-06T22:58:59.450Z,87.49
2018-12-06T23:01:33.332Z,87.67
2018-12-06T23:04:01.886Z,87.81
2018-12-06T23:06:30.279Z,87.37
2018-12-06T23:08:58.721Z,87.69
2018-12-06T23:11:27.143Z,87.54
2018-12-06T23:13:55.726Z,87.77
2018-12-06T23:16:24.345Z,87.58
2018-12-06T23:18:52.745Z,87.63
2018-12-06T23:21:21.157Z,87.85
2018-12-06T23:23:49.740Z,87.80
2018-12-06T23:28:53.509Z,87.42
2018-12-06T23:31:21.901Z,87.60
2018-12-06T23:33:50.832Z,87.44
2018-12-06T23:36:20.277Z,87.68
2018-12-06T23:38:48.690Z,87.41
2018-12-06T23:41:17.084Z,87.79
2018-12-06T23:43:45.518Z,87.63
2018-12-06T23:46:13.893Z,87.60
2018-12-06T23:48:42.329Z,87.70
2018-12-06T23:51:21.981Z,87.65
2018-12-06T23:53:50.386Z,87.80
2018-12-06T23:56:18.865Z,87.52
2018-12-06T23:58:47.328Z,87.62
